sensor_id;sensor_type;location;lat;lon;timestamp;P1;durP1;ratioP1;P2;durP2;ratioP2
58208;SDS011;44006;52.028;4.696;2023-10-19T00:01:53;38.28;;;27.75;;
58208;SDS011;44006;52.028;4.696;2023-10-19T00:04:18;42.30;;;29.20;;
58208;SDS011;44006;52.028;4.696;2023-10-19T00:06:44;45.03;;;28.48;;
58208;SDS011;44006;52.028;4.696;2023-10-19T00:09:10;41.10;;;28.45;;
58208;SDS011;44006;52.028;4.696;2023-10-19T00:11:36;37.83;;;27.73;;
58208;SDS011;44006;52.028;4.696;2023-10-19T00:14:02;38.05;;;26.88;;
58208;SDS011;44006;52.028;4.696;2023-10-19T00:16:28;36.28;;;26.88;;
58208;SDS011;44006;52.028;4.696;2023-10-19T00:19:00;38.92;;;26.60;;
58208;SDS011;44006;52.028;4.696;2023-10-19T00:21:25;43.85;;;29.00;;
58208;SDS011;44006;52.028;4.696;2023-10-19T00:23:56;39.20;;;28.27;;
58208;SDS011;44006;52.028;4.696;2023-10-19T00:26:28;40.13;;;28.08;;
58208;SDS011;44006;52.028;4.696;2023-10-19T00:28:55;42.25;;;27.38;;
58208;SDS011;44006;52.028;4.696;2023-10-19T00:31:21;35.40;;;27.27;;
58208;SDS011;44006;52.028;4.696;2023-10-19T00:33:46;42.92;;;29.08;;
58208;SDS011;44006;52.028;4.696;2023-10-19T00:36:11;40.03;;;29.00;;
58208;SDS011;44006;52.028;4.696;2023-10-19T00:38:40;44.88;;;28.40;;
58208;SDS011;44006;52.028;4.696;2023-10-19T00:41:13;41.45;;;28.88;;
58208;SDS011;44006;52.028;4.696;2023-10-19T00:43:39;42.72;;;29.15;;
58208;SDS011;44006;52.028;4.696;2023-10-19T00:46:12;38.75;;;27.23;;
58208;SDS011;44006;52.028;4.696;2023-10-19T00:48:48;37.53;;;27.30;;
58208;SDS011;44006;52.028;4.696;2023-10-19T00:51:14;44.70;;;30.60;;
58208;SDS011;44006;52.028;4.696;2023-10-19T00:53:57;42.05;;;29.38;;
58208;SDS011;44006;52.028;4.696;2023-10-19T00:56:23;42.03;;;29.10;;
58208;SDS011;44006;52.028;4.696;2023-10-19T00:58:50;38.30;;;28.15;;
58208;SDS011;44006;52.028;4.696;2023-10-19T01:01:22;42.60;;;29.55;;
58208;SDS011;44006;52.028;4.696;2023-10-19T01:03:49;47.42;;;31.33;;
58208;SDS011;44006;52.028;4.696;2023-10-19T01:06:21;51.85;;;30.73;;
58208;SDS011;44006;52.028;4.696;2023-10-19T01:08:46;44.97;;;29.67;;
58208;SDS011;44006;52.028;4.696;2023-10-19T01:11:11;47.20;;;31.27;;
58208;SDS011;44006;52.028;4.696;2023-10-19T01:13:40;46.63;;;29.58;;
58208;SDS011;44006;52.028;4.696;2023-10-19T01:16:17;50.00;;;32.50;;
58208;SDS011;44006;52.028;4.696;2023-10-19T01:21:13;45.08;;;29.48;;
58208;SDS011;44006;52.028;4.696;2023-10-19T01:23:39;39.10;;;28.27;;
58208;SDS011;44006;52.028;4.696;2023-10-19T01:26:04;38.80;;;27.45;;
58208;SDS011;44006;52.028;4.696;2023-10-19T01:28:34;44.58;;;26.98;;
58208;SDS011;44006;52.028;4.696;2023-10-19T01:31:25;40.38;;;26.85;;
58208;SDS011;44006;52.028;4.696;2023-10-19T01:33:53;37.05;;;25.65;;
58208;SDS011;44006;52.028;4.696;2023-10-19T01:36:31;39.55;;;26.75;;
58208;SDS011;44006;52.028;4.696;2023-10-19T01:39:17;37.65;;;24.92;;
58208;SDS011;44006;52.028;4.696;2023-10-19T01:41:44;30.33;;;22.08;;
58208;SDS011;44006;52.028;4.696;2023-10-19T01:44:09;35.75;;;20.38;;
58208;SDS011;44006;52.028;4.696;2023-10-19T01:46:38;26.33;;;17.80;;
58208;SDS011;44006;52.028;4.696;2023-10-19T01:49:04;24.20;;;16.08;;
58208;SDS011;44006;52.028;4.696;2023-10-19T01:51:30;20.80;;;13.57;;
58208;SDS011;44006;52.028;4.696;2023-10-19T01:53:58;20.85;;;13.57;;
58208;SDS011;44006;52.028;4.696;2023-10-19T01:56:24;18.80;;;13.02;;
58208;SDS011;44006;52.028;4.696;2023-10-19T01:58:49;16.33;;;11.57;;
58208;SDS011;44006;52.028;4.696;2023-10-19T02:01:16;17.13;;;11.73;;
58208;SDS011;44006;52.028;4.696;2023-10-19T02:03:44;18.33;;;11.20;;
58208;SDS011;44006;52.028;4.696;2023-10-19T02:06:14;15.43;;;10.60;;
58208;SDS011;44006;52.028;4.696;2023-10-19T02:08:46;14.60;;;9.20;;
58208;SDS011;44006;52.028;4.696;2023-10-19T02:11:21;15.23;;;8.98;;
58208;SDS011;44006;52.028;4.696;2023-10-19T02:13:47;12.90;;;8.38;;
58208;SDS011;44006;52.028;4.696;2023-10-19T02:16:14;12.32;;;7.50;;
58208;SDS011;44006;52.028;4.696;2023-10-19T02:18:41;15.13;;;6.40;;
58208;SDS011;44006;52.028;4.696;2023-10-19T02:21:07;9.02;;;5.18;;
58208;SDS011;44006;52.028;4.696;2023-10-19T02:23:32;10.68;;;4.97;;
58208;SDS011;44006;52.028;4.696;2023-10-19T02:26:00;6.78;;;4.15;;
58208;SDS011;44006;52.028;4.696;2023-10-19T02:28:25;10.90;;;4.82;;
58208;SDS011;44006;52.028;4.696;2023-10-19T02:30:56;9.90;;;4.13;;
58208;SDS011;44006;52.028;4.696;2023-10-19T02:33:21;9.48;;;4.30;;
58208;SDS011;44006;52.028;4.696;2023-10-19T02:35:47;6.25;;;3.33;;
58208;SDS011;44006;52.028;4.696;2023-10-19T02:38:13;7.00;;;3.83;;
58208;SDS011;44006;52.028;4.696;2023-10-19T02:40:38;8.98;;;3.45;;
58208;SDS011;44006;52.028;4.696;2023-10-19T02:43:03;6.90;;;2.90;;
58208;SDS011;44006;52.028;4.696;2023-10-19T02:45:29;7.10;;;2.92;;
58208;SDS011;44006;52.028;4.696;2023-10-19T02:47:56;8.13;;;3.08;;
58208;SDS011;44006;52.028;4.696;2023-10-19T02:50:22;5.00;;;2.80;;
58208;SDS011;44006;52.028;4.696;2023-10-19T02:52:48;14.88;;;3.10;;
58208;SDS011;44006;52.028;4.696;2023-10-19T02:55:13;7.50;;;2.67;;
58208;SDS011;44006;52.028;4.696;2023-10-19T02:57:41;5.22;;;2.53;;
58208;SDS011;44006;52.028;4.696;2023-10-19T03:00:07;6.20;;;2.63;;
58208;SDS011;44006;52.028;4.696;2023-10-19T03:02:39;6.15;;;2.42;;
58208;SDS011;44006;52.028;4.696;2023-10-19T03:05:04;8.75;;;3.05;;
58208;SDS011;44006;52.028;4.696;2023-10-19T03:07:38;7.20;;;2.38;;
58208;SDS011;44006;52.028;4.696;2023-10-19T03:10:04;8.32;;;2.50;;
58208;SDS011;44006;52.028;4.696;2023-10-19T03:12:30;5.70;;;2.50;;
58208;SDS011;44006;52.028;4.696;2023-10-19T03:14:55;6.00;;;2.83;;
58208;SDS011;44006;52.028;4.696;2023-10-19T03:17:20;9.40;;;3.42;;
58208;SDS011;44006;52.028;4.696;2023-10-19T03:19:46;8.45;;;3.75;;
58208;SDS011;44006;52.028;4.696;2023-10-19T03:22:11;6.95;;;3.20;;
58208;SDS011;44006;52.028;4.696;2023-10-19T03:24:36;5.47;;;3.05;;
58208;SDS011;44006;52.028;4.696;2023-10-19T03:27:06;9.50;;;3.50;;
58208;SDS011;44006;52.028;4.696;2023-10-19T03:29:47;10.88;;;3.38;;
58208;SDS011;44006;52.028;4.696;2023-10-19T03:32:18;4.90;;;2.77;;
58208;SDS011;44006;52.028;4.696;2023-10-19T03:34:47;8.10;;;3.10;;
58208;SDS011;44006;52.028;4.696;2023-10-19T03:37:13;4.95;;;3.08;;
58208;SDS011;44006;52.028;4.696;2023-10-19T03:39:39;6.50;;;2.75;;
58208;SDS011;44006;52.028;4.696;2023-10-19T03:42:05;6.10;;;2.78;;
58208;SDS011;44006;52.028;4.696;2023-10-19T03:44:33;8.88;;;2.63;;
58208;SDS011;44006;52.028;4.696;2023-10-19T03:47:25;8.27;;;2.53;;
58208;SDS011;44006;52.028;4.696;2023-10-19T03:49:51;6.57;;;2.30;;
58208;SDS011;44006;52.028;4.696;2023-10-19T03:52:16;9.73;;;2.20;;
58208;SDS011;44006;52.028;4.696;2023-10-19T03:54:41;8.52;;;2.10;;
58208;SDS011;44006;52.028;4.696;2023-10-19T03:57:07;12.13;;;2.10;;
58208;SDS011;44006;52.028;4.696;2023-10-19T03:59:45;9.20;;;2.05;;
58208;SDS011;44006;52.028;4.696;2023-10-19T04:02:11;6.35;;;1.90;;
58208;SDS011;44006;52.028;4.696;2023-10-19T04:04:41;6.80;;;2.25;;
58208;SDS011;44006;52.028;4.696;2023-10-19T04:07:11;7.43;;;2.10;;
58208;SDS011;44006;52.028;4.696;2023-10-19T04:09:45;10.77;;;2.17;;
58208;SDS011;44006;52.028;4.696;2023-10-19T04:12:28;5.82;;;1.98;;
58208;SDS011;44006;52.028;4.696;2023-10-19T04:14:54;5.78;;;2.10;;
58208;SDS011;44006;52.028;4.696;2023-10-19T04:17:20;10.85;;;2.15;;
58208;SDS011;44006;52.028;4.696;2023-10-19T04:19:46;10.80;;;2.50;;
58208;SDS011;44006;52.028;4.696;2023-10-19T04:22:11;13.20;;;2.30;;
58208;SDS011;44006;52.028;4.696;2023-10-19T04:24:49;11.15;;;2.10;;
58208;SDS011;44006;52.028;4.696;2023-10-19T04:27:14;5.00;;;1.90;;
58208;SDS011;44006;52.028;4.696;2023-10-19T04:29:39;12.20;;;2.60;;
58208;SDS011;44006;52.028;4.696;2023-10-19T04:32:06;6.13;;;1.83;;
58208;SDS011;44006;52.028;4.696;2023-10-19T04:34:32;9.70;;;2.15;;
58208;SDS011;44006;52.028;4.696;2023-10-19T04:36:57;6.50;;;2.20;;
58208;SDS011;44006;52.028;4.696;2023-10-19T04:39:22;9.45;;;1.98;;
58208;SDS011;44006;52.028;4.696;2023-10-19T04:41:47;12.50;;;2.10;;
58208;SDS011;44006;52.028;4.696;2023-10-19T04:44:14;8.00;;;2.22;;
58208;SDS011;44006;52.028;4.696;2023-10-19T04:46:40;20.10;;;2.47;;
58208;SDS011;44006;52.028;4.696;2023-10-19T04:49:05;10.85;;;1.92;;
58208;SDS011;44006;52.028;4.696;2023-10-19T04:51:31;11.77;;;2.20;;
58208;SDS011;44006;52.028;4.696;2023-10-19T04:53:56;11.43;;;1.93;;
58208;SDS011;44006;52.028;4.696;2023-10-19T04:56:21;10.77;;;2.33;;
58208;SDS011;44006;52.028;4.696;2023-10-19T04:58:47;10.65;;;2.35;;
58208;SDS011;44006;52.028;4.696;2023-10-19T05:01:12;8.88;;;2.00;;
58208;SDS011;44006;52.028;4.696;2023-10-19T05:03:37;8.57;;;2.13;;
58208;SDS011;44006;52.028;4.696;2023-10-19T05:06:03;8.77;;;2.17;;
58208;SDS011;44006;52.028;4.696;2023-10-19T05:08:28;13.38;;;2.08;;
58208;SDS011;44006;52.028;4.696;2023-10-19T05:10:54;9.20;;;2.00;;
58208;SDS011;44006;52.028;4.696;2023-10-19T05:13:20;9.45;;;2.78;;
58208;SDS011;44006;52.028;4.696;2023-10-19T05:15:45;12.07;;;2.30;;
58208;SDS011;44006;52.028;4.696;2023-10-19T05:18:11;14.50;;;2.28;;
58208;SDS011;44006;52.028;4.696;2023-10-19T05:20:37;12.60;;;2.25;;
58208;SDS011;44006;52.028;4.696;2023-10-19T05:23:05;14.23;;;2.20;;
58208;SDS011;44006;52.028;4.696;2023-10-19T05:25:30;16.15;;;2.45;;
58208;SDS011;44006;52.028;4.696;2023-10-19T05:27:55;13.00;;;2.50;;
58208;SDS011;44006;52.028;4.696;2023-10-19T05:30:21;8.37;;;2.50;;
58208;SDS011;44006;52.028;4.696;2023-10-19T05:32:47;11.15;;;2.80;;
58208;SDS011;44006;52.028;4.696;2023-10-19T05:35:14;7.95;;;2.50;;
58208;SDS011;44006;52.028;4.696;2023-10-19T05:37:47;9.60;;;2.40;;
58208;SDS011;44006;52.028;4.696;2023-10-19T05:40:14;9.48;;;2.58;;
58208;SDS011;44006;52.028;4.696;2023-10-19T05:42:40;14.85;;;3.00;;
58208;SDS011;44006;52.028;4.696;2023-10-19T05:45:05;10.27;;;2.85;;
58208;SDS011;44006;52.028;4.696;2023-10-19T05:47:30;11.38;;;2.85;;
58208;SDS011;44006;52.028;4.696;2023-10-19T05:49:56;11.70;;;2.75;;
58208;SDS011;44006;52.028;4.696;2023-10-19T05:52:21;9.73;;;2.53;;
58208;SDS011;44006;52.028;4.696;2023-10-19T05:54:47;8.85;;;2.45;;
58208;SDS011;44006;52.028;4.696;2023-10-19T05:57:15;10.60;;;3.13;;
58208;SDS011;44006;52.028;4.696;2023-10-19T05:59:41;18.63;;;3.15;;
58208;SDS011;44006;52.028;4.696;2023-10-19T06:02:06;11.23;;;2.80;;
58208;SDS011;44006;52.028;4.696;2023-10-19T06:04:32;13.02;;;3.00;;
58208;SDS011;44006;52.028;4.696;2023-10-19T06:06:57;9.80;;;2.70;;
58208;SDS011;44006;52.028;4.696;2023-10-19T06:09:23;6.97;;;2.63;;
58208;SDS011;44006;52.028;4.696;2023-10-19T06:11:54;8.20;;;2.72;;
58208;SDS011;44006;52.028;4.696;2023-10-19T06:14:19;15.32;;;3.30;;
58208;SDS011;44006;52.028;4.696;2023-10-19T06:16:44;9.70;;;2.80;;
58208;SDS011;44006;52.028;4.696;2023-10-19T06:19:09;11.07;;;3.00;;
58208;SDS011;44006;52.028;4.696;2023-10-19T06:21:35;12.47;;;3.10;;
58208;SDS011;44006;52.028;4.696;2023-10-19T06:24:00;9.33;;;3.27;;
58208;SDS011;44006;52.028;4.696;2023-10-19T06:26:25;8.43;;;2.90;;
58208;SDS011;44006;52.028;4.696;2023-10-19T06:28:50;10.87;;;3.20;;
58208;SDS011;44006;52.028;4.696;2023-10-19T06:31:16;9.27;;;3.17;;
58208;SDS011;44006;52.028;4.696;2023-10-19T06:33:42;9.30;;;3.38;;
58208;SDS011;44006;52.028;4.696;2023-10-19T06:36:07;12.80;;;3.17;;
58208;SDS011;44006;52.028;4.696;2023-10-19T06:38:32;8.50;;;2.78;;
58208;SDS011;44006;52.028;4.696;2023-10-19T06:40:59;12.40;;;3.50;;
58208;SDS011;44006;52.028;4.696;2023-10-19T06:43:24;16.90;;;3.13;;
58208;SDS011;44006;52.028;4.696;2023-10-19T06:45:53;12.70;;;3.58;;
58208;SDS011;44006;52.028;4.696;2023-10-19T06:48:20;12.88;;;3.45;;
58208;SDS011;44006;52.028;4.696;2023-10-19T06:50:45;14.15;;;3.78;;
58208;SDS011;44006;52.028;4.696;2023-10-19T06:53:11;7.80;;;3.23;;
58208;SDS011;44006;52.028;4.696;2023-10-19T06:55:36;14.60;;;3.40;;
58208;SDS011;44006;52.028;4.696;2023-10-19T06:58:01;9.13;;;3.07;;
58208;SDS011;44006;52.028;4.696;2023-10-19T07:00:27;9.23;;;3.50;;
58208;SDS011;44006;52.028;4.696;2023-10-19T07:02:53;8.15;;;3.20;;
58208;SDS011;44006;52.028;4.696;2023-10-19T07:05:20;13.00;;;2.85;;
58208;SDS011;44006;52.028;4.696;2023-10-19T07:07:55;8.90;;;2.95;;
58208;SDS011;44006;52.028;4.696;2023-10-19T07:10:22;9.90;;;2.95;;
58208;SDS011;44006;52.028;4.696;2023-10-19T07:12:48;13.10;;;3.25;;
58208;SDS011;44006;52.028;4.696;2023-10-19T07:15:13;8.35;;;3.10;;
58208;SDS011;44006;52.028;4.696;2023-10-19T07:17:39;14.10;;;3.40;;
58208;SDS011;44006;52.028;4.696;2023-10-19T07:20:05;12.55;;;3.33;;
58208;SDS011;44006;52.028;4.696;2023-10-19T07:22:36;10.00;;;3.30;;
58208;SDS011;44006;52.028;4.696;2023-10-19T07:25:04;16.42;;;3.58;;
58208;SDS011;44006;52.028;4.696;2023-10-19T07:27:30;12.25;;;3.33;;
58208;SDS011;44006;52.028;4.696;2023-10-19T07:29:56;14.88;;;3.38;;
58208;SDS011;44006;52.028;4.696;2023-10-19T07:32:22;13.65;;;3.80;;
58208;SDS011;44006;52.028;4.696;2023-10-19T07:34:47;12.38;;;3.90;;
58208;SDS011;44006;52.028;4.696;2023-10-19T07:37:13;12.32;;;3.72;;
58208;SDS011;44006;52.028;4.696;2023-10-19T07:39:40;11.85;;;4.15;;
58208;SDS011;44006;52.028;4.696;2023-10-19T07:42:09;15.23;;;4.22;;
58208;SDS011;44006;52.028;4.696;2023-10-19T07:44:36;13.95;;;4.88;;
58208;SDS011;44006;52.028;4.696;2023-10-19T07:47:01;13.65;;;3.80;;
58208;SDS011;44006;52.028;4.696;2023-10-19T07:49:26;12.82;;;3.70;;
58208;SDS011;44006;52.028;4.696;2023-10-19T07:51:52;11.87;;;4.20;;
58208;SDS011;44006;52.028;4.696;2023-10-19T07:54:17;9.57;;;3.35;;
58208;SDS011;44006;52.028;4.696;2023-10-19T07:56:42;13.03;;;4.03;;
58208;SDS011;44006;52.028;4.696;2023-10-19T07:59:08;12.75;;;3.50;;
58208;SDS011;44006;52.028;4.696;2023-10-19T08:01:34;16.85;;;3.90;;
58208;SDS011;44006;52.028;4.696;2023-10-19T08:03:59;10.18;;;3.55;;
58208;SDS011;44006;52.028;4.696;2023-10-19T08:06:24;16.35;;;3.47;;
58208;SDS011;44006;52.028;4.696;2023-10-19T08:08:51;12.75;;;4.05;;
58208;SDS011;44006;52.028;4.696;2023-10-19T08:11:16;15.97;;;3.47;;
58208;SDS011;44006;52.028;4.696;2023-10-19T08:13:42;11.52;;;3.72;;
58208;SDS011;44006;52.028;4.696;2023-10-19T08:16:07;13.20;;;3.53;;
58208;SDS011;44006;52.028;4.696;2023-10-19T08:18:32;14.18;;;3.83;;
58208;SDS011;44006;52.028;4.696;2023-10-19T08:21:00;8.43;;;3.35;;
58208;SDS011;44006;52.028;4.696;2023-10-19T08:23:25;15.23;;;3.80;;
58208;SDS011;44006;52.028;4.696;2023-10-19T08:25:52;14.32;;;3.63;;
58208;SDS011;44006;52.028;4.696;2023-10-19T08:28:17;12.70;;;3.53;;
58208;SDS011;44006;52.028;4.696;2023-10-19T08:30:43;13.32;;;3.92;;
58208;SDS011;44006;52.028;4.696;2023-10-19T08:33:10;13.85;;;3.78;;
58208;SDS011;44006;52.028;4.696;2023-10-19T08:35:38;13.80;;;3.58;;
58208;SDS011;44006;52.028;4.696;2023-10-19T08:38:04;9.27;;;3.42;;
58208;SDS011;44006;52.028;4.696;2023-10-19T08:40:36;13.70;;;3.90;;
58208;SDS011;44006;52.028;4.696;2023-10-19T08:43:01;13.25;;;3.25;;
58208;SDS011;44006;52.028;4.696;2023-10-19T08:45:27;16.08;;;4.90;;
58208;SDS011;44006;52.028;4.696;2023-10-19T08:47:56;10.10;;;4.60;;
58208;SDS011;44006;52.028;4.696;2023-10-19T08:50:26;11.57;;;4.13;;
58208;SDS011;44006;52.028;4.696;2023-10-19T08:52:55;14.93;;;4.35;;
58208;SDS011;44006;52.028;4.696;2023-10-19T08:55:21;13.82;;;4.35;;
58208;SDS011;44006;52.028;4.696;2023-10-19T08:57:47;21.33;;;5.00;;
58208;SDS011;44006;52.028;4.696;2023-10-19T09:00:14;14.80;;;4.97;;
58208;SDS011;44006;52.028;4.696;2023-10-19T09:02:42;19.17;;;5.15;;
58208;SDS011;44006;52.028;4.696;2023-10-19T09:05:07;15.30;;;4.90;;
58208;SDS011;44006;52.028;4.696;2023-10-19T09:07:32;16.17;;;4.90;;
58208;SDS011;44006;52.028;4.696;2023-10-19T09:09:59;13.95;;;4.85;;
58208;SDS011;44006;52.028;4.696;2023-10-19T09:12:26;13.93;;;4.75;;
58208;SDS011;44006;52.028;4.696;2023-10-19T09:14:51;14.07;;;4.20;;
58208;SDS011;44006;52.028;4.696;2023-10-19T09:17:27;18.48;;;4.53;;
58208;SDS011;44006;52.028;4.696;2023-10-19T09:19:53;19.27;;;4.88;;
58208;SDS011;44006;52.028;4.696;2023-10-19T09:22:19;21.65;;;4.60;;
58208;SDS011;44006;52.028;4.696;2023-10-19T09:24:51;16.63;;;4.15;;
58208;SDS011;44006;52.028;4.696;2023-10-19T09:27:18;19.97;;;4.57;;
58208;SDS011;44006;52.028;4.696;2023-10-19T09:29:43;13.15;;;4.28;;
58208;SDS011;44006;52.028;4.696;2023-10-19T09:32:09;21.83;;;5.03;;
58208;SDS011;44006;52.028;4.696;2023-10-19T09:34:35;17.33;;;4.40;;
58208;SDS011;44006;52.028;4.696;2023-10-19T09:37:00;21.00;;;4.80;;
58208;SDS011;44006;52.028;4.696;2023-10-19T09:39:32;19.92;;;4.70;;
58208;SDS011;44006;52.028;4.696;2023-10-19T09:42:09;17.35;;;4.78;;
58208;SDS011;44006;52.028;4.696;2023-10-19T09:44:42;20.52;;;4.95;;
58208;SDS011;44006;52.028;4.696;2023-10-19T09:47:11;16.80;;;4.25;;
58208;SDS011;44006;52.028;4.696;2023-10-19T09:49:37;18.33;;;5.28;;
58208;SDS011;44006;52.028;4.696;2023-10-19T09:52:03;16.55;;;4.63;;
58208;SDS011;44006;52.028;4.696;2023-10-19T09:57:00;19.55;;;5.10;;
58208;SDS011;44006;52.028;4.696;2023-10-19T09:59:32;20.98;;;5.72;;
58208;SDS011;44006;52.028;4.696;2023-10-19T10:02:06;27.67;;;6.50;;
58208;SDS011;44006;52.028;4.696;2023-10-19T10:04:32;20.88;;;5.43;;
58208;SDS011;44006;52.028;4.696;2023-10-19T10:06:58;17.90;;;5.43;;
58208;SDS011;44006;52.028;4.696;2023-10-19T10:09:25;18.02;;;4.72;;
58208;SDS011;44006;52.028;4.696;2023-10-19T10:11:53;15.25;;;4.18;;
58208;SDS011;44006;52.028;4.696;2023-10-19T10:14:22;22.88;;;4.40;;
58208;SDS011;44006;52.028;4.696;2023-10-19T10:16:52;15.10;;;4.18;;
58208;SDS011;44006;52.028;4.696;2023-10-19T10:19:24;17.35;;;4.18;;
58208;SDS011;44006;52.028;4.696;2023-10-19T10:24:31;13.90;;;4.10;;
58208;SDS011;44006;52.028;4.696;2023-10-19T10:26:59;11.18;;;3.58;;
58208;SDS011;44006;52.028;4.696;2023-10-19T10:29:28;17.33;;;4.30;;
58208;SDS011;44006;52.028;4.696;2023-10-19T10:31:54;13.90;;;3.10;;
58208;SDS011;44006;52.028;4.696;2023-10-19T10:37:03;12.93;;;2.97;;
58208;SDS011;44006;52.028;4.696;2023-10-19T10:39:29;17.90;;;3.90;;
58208;SDS011;44006;52.028;4.696;2023-10-19T10:41:59;17.27;;;3.45;;
58208;SDS011;44006;52.028;4.696;2023-10-19T10:49:35;15.65;;;3.35;;
58208;SDS011;44006;52.028;4.696;2023-10-19T10:52:01;14.57;;;3.72;;
58208;SDS011;44006;52.028;4.696;2023-10-19T10:54:26;15.48;;;3.25;;
58208;SDS011;44006;52.028;4.696;2023-10-19T10:56:52;16.13;;;3.70;;
58208;SDS011;44006;52.028;4.696;2023-10-19T10:59:17;13.32;;;4.47;;
58208;SDS011;44006;52.028;4.696;2023-10-19T11:01:42;20.20;;;3.85;;
58208;SDS011;44006;52.028;4.696;2023-10-19T11:04:11;15.57;;;3.55;;
58208;SDS011;44006;52.028;4.696;2023-10-19T11:06:47;9.63;;;3.30;;
58208;SDS011;44006;52.028;4.696;2023-10-19T11:09:12;15.90;;;3.67;;
58208;SDS011;44006;52.028;4.696;2023-10-19T11:11:37;10.93;;;3.05;;
58208;SDS011;44006;52.028;4.696;2023-10-19T11:14:10;15.98;;;3.67;;
58208;SDS011;44006;52.028;4.696;2023-10-19T11:16:38;12.43;;;3.13;;
58208;SDS011;44006;52.028;4.696;2023-10-19T11:19:04;15.75;;;3.55;;
58208;SDS011;44006;52.028;4.696;2023-10-19T11:21:29;14.40;;;4.07;;
58208;SDS011;44006;52.028;4.696;2023-10-19T11:23:55;15.73;;;3.93;;
58208;SDS011;44006;52.028;4.696;2023-10-19T11:26:22;18.08;;;3.88;;
58208;SDS011;44006;52.028;4.696;2023-10-19T11:28:58;15.82;;;3.38;;
58208;SDS011;44006;52.028;4.696;2023-10-19T11:31:24;20.00;;;3.50;;
58208;SDS011;44006;52.028;4.696;2023-10-19T11:33:50;17.73;;;3.40;;
58208;SDS011;44006;52.028;4.696;2023-10-19T11:36:19;14.95;;;3.10;;
58208;SDS011;44006;52.028;4.696;2023-10-19T11:38:45;15.15;;;3.03;;
58208;SDS011;44006;52.028;4.696;2023-10-19T11:41:11;15.13;;;3.63;;
58208;SDS011;44006;52.028;4.696;2023-10-19T11:43:38;15.00;;;2.92;;
58208;SDS011;44006;52.028;4.696;2023-10-19T11:46:03;17.08;;;3.03;;
58208;SDS011;44006;52.028;4.696;2023-10-19T11:48:35;14.90;;;2.83;;
58208;SDS011;44006;52.028;4.696;2023-10-19T11:51:01;19.08;;;3.47;;
58208;SDS011;44006;52.028;4.696;2023-10-19T11:53:29;15.68;;;3.00;;
58208;SDS011;44006;52.028;4.696;2023-10-19T11:55:58;12.90;;;2.58;;
58208;SDS011;44006;52.028;4.696;2023-10-19T11:58:23;12.23;;;2.80;;
58208;SDS011;44006;52.028;4.696;2023-10-19T12:00:48;21.03;;;3.20;;
58208;SDS011;44006;52.028;4.696;2023-10-19T12:03:13;14.40;;;3.30;;
58208;SDS011;44006;52.028;4.696;2023-10-19T12:05:39;19.73;;;3.40;;
58208;SDS011;44006;52.028;4.696;2023-10-19T12:08:04;15.35;;;3.03;;
58208;SDS011;44006;52.028;4.696;2023-10-19T12:10:30;15.57;;;4.03;;
58208;SDS011;44006;52.028;4.696;2023-10-19T12:13:01;13.98;;;3.35;;
58208;SDS011;44006;52.028;4.696;2023-10-19T12:15:26;14.55;;;3.30;;
58208;SDS011;44006;52.028;4.696;2023-10-19T12:17:52;19.83;;;3.35;;
58208;SDS011;44006;52.028;4.696;2023-10-19T12:20:19;17.98;;;3.28;;
58208;SDS011;44006;52.028;4.696;2023-10-19T12:22:46;16.15;;;2.92;;
58208;SDS011;44006;52.028;4.696;2023-10-19T12:25:12;24.40;;;3.33;;
58208;SDS011;44006;52.028;4.696;2023-10-19T12:27:38;15.65;;;3.03;;
58208;SDS011;44006;52.028;4.696;2023-10-19T12:30:03;15.60;;;3.47;;
58208;SDS011;44006;52.028;4.696;2023-10-19T12:32:38;16.80;;;3.00;;
58208;SDS011;44006;52.028;4.696;2023-10-19T12:35:03;15.80;;;3.20;;
58208;SDS011;44006;52.028;4.696;2023-10-19T12:37:36;19.50;;;3.67;;
58208;SDS011;44006;52.028;4.696;2023-10-19T12:40:06;19.95;;;3.28;;
58208;SDS011;44006;52.028;4.696;2023-10-19T12:42:51;18.85;;;2.80;;
58208;SDS011;44006;52.028;4.696;2023-10-19T12:45:17;17.52;;;3.50;;
58208;SDS011;44006;52.028;4.696;2023-10-19T12:47:44;13.82;;;2.80;;
58208;SDS011;44006;52.028;4.696;2023-10-19T12:50:09;14.93;;;3.27;;
58208;SDS011;44006;52.028;4.696;2023-10-19T12:52:34;16.27;;;3.15;;
58208;SDS011;44006;52.028;4.696;2023-10-19T12:55:02;20.20;;;3.70;;
58208;SDS011;44006;52.028;4.696;2023-10-19T12:57:29;15.45;;;3.20;;
58208;SDS011;44006;52.028;4.696;2023-10-19T12:59:54;14.10;;;3.03;;
58208;SDS011;44006;52.028;4.696;2023-10-19T13:02:19;17.43;;;3.43;;
58208;SDS011;44006;52.028;4.696;2023-10-19T13:04:45;16.58;;;3.22;;
58208;SDS011;44006;52.028;4.696;2023-10-19T13:07:11;20.45;;;3.95;;
58208;SDS011;44006;52.028;4.696;2023-10-19T13:09:37;18.48;;;3.70;;
58208;SDS011;44006;52.028;4.696;2023-10-19T13:12:02;17.23;;;3.70;;
58208;SDS011;44006;52.028;4.696;2023-10-19T13:14:32;18.27;;;3.42;;
58208;SDS011;44006;52.028;4.696;2023-10-19T13:16:59;16.58;;;3.50;;
58208;SDS011;44006;52.028;4.696;2023-10-19T13:19:24;12.77;;;3.42;;
58208;SDS011;44006;52.028;4.696;2023-10-19T13:21:50;16.63;;;3.20;;
58208;SDS011;44006;52.028;4.696;2023-10-19T13:24:15;16.73;;;3.50;;
58208;SDS011;44006;52.028;4.696;2023-10-19T13:26:41;18.95;;;3.78;;
58208;SDS011;44006;52.028;4.696;2023-10-19T13:29:10;15.85;;;3.75;;
58208;SDS011;44006;52.028;4.696;2023-10-19T13:31:36;24.10;;;4.45;;
58208;SDS011;44006;52.028;4.696;2023-10-19T13:34:01;17.17;;;3.33;;
58208;SDS011;44006;52.028;4.696;2023-10-19T13:36:28;13.43;;;3.53;;
58208;SDS011;44006;52.028;4.696;2023-10-19T13:38:53;14.77;;;3.40;;
58208;SDS011;44006;52.028;4.696;2023-10-19T13:41:19;19.02;;;5.05;;
58208;SDS011;44006;52.028;4.696;2023-10-19T13:43:45;15.07;;;4.07;;
58208;SDS011;44006;52.028;4.696;2023-10-19T13:46:12;22.95;;;4.32;;
58208;SDS011;44006;52.028;4.696;2023-10-19T13:48:37;14.63;;;4.20;;
58208;SDS011;44006;52.028;4.696;2023-10-19T13:51:04;26.85;;;4.53;;
58208;SDS011;44006;52.028;4.696;2023-10-19T13:53:40;17.15;;;4.38;;
58208;SDS011;44006;52.028;4.696;2023-10-19T13:56:08;21.90;;;5.00;;
58208;SDS011;44006;52.028;4.696;2023-10-19T13:58:37;18.17;;;4.05;;
58208;SDS011;44006;52.028;4.696;2023-10-19T14:01:02;16.00;;;4.28;;
58208;SDS011;44006;52.028;4.696;2023-10-19T14:03:31;12.23;;;4.60;;
58208;SDS011;44006;52.028;4.696;2023-10-19T14:05:56;20.03;;;4.63;;
58208;SDS011;44006;52.028;4.696;2023-10-19T14:08:21;16.55;;;4.60;;
58208;SDS011;44006;52.028;4.696;2023-10-19T14:10:46;16.60;;;4.45;;
58208;SDS011;44006;52.028;4.696;2023-10-19T14:13:12;24.00;;;4.45;;
58208;SDS011;44006;52.028;4.696;2023-10-19T14:15:38;17.90;;;4.70;;
58208;SDS011;44006;52.028;4.696;2023-10-19T14:18:03;15.10;;;5.00;;
58208;SDS011;44006;52.028;4.696;2023-10-19T14:20:29;18.17;;;4.50;;
58208;SDS011;44006;52.028;4.696;2023-10-19T14:22:55;20.00;;;4.45;;
58208;SDS011;44006;52.028;4.696;2023-10-19T14:25:21;16.23;;;4.10;;
58208;SDS011;44006;52.028;4.696;2023-10-19T14:27:48;18.85;;;4.65;;
58208;SDS011;44006;52.028;4.696;2023-10-19T14:30:14;19.50;;;4.40;;
58208;SDS011;44006;52.028;4.696;2023-10-19T14:32:43;14.30;;;4.55;;
58208;SDS011;44006;52.028;4.696;2023-10-19T14:35:08;19.55;;;4.38;;
58208;SDS011;44006;52.028;4.696;2023-10-19T14:37:36;20.88;;;4.75;;
58208;SDS011;44006;52.028;4.696;2023-10-19T14:40:03;19.63;;;5.05;;
58208;SDS011;44006;52.028;4.696;2023-10-19T14:42:29;14.10;;;4.22;;
58208;SDS011;44006;52.028;4.696;2023-10-19T14:44:58;21.70;;;4.65;;
58208;SDS011;44006;52.028;4.696;2023-10-19T14:47:23;18.60;;;4.85;;
58208;SDS011;44006;52.028;4.696;2023-10-19T14:49:48;13.37;;;4.67;;
58208;SDS011;44006;52.028;4.696;2023-10-19T14:52:14;14.35;;;4.55;;